Time;durP1;ratioP1;P1;durP2;ratioP2;P2;SDS_P1;SDS_P2;PMS_P1;PMS_P2;Temp;Humidity;BMP_temperature;BMP_pressure;BME280_temperature;BME280_humidity;BME280_pressure;Samples;Min_cycle;Max_cycle;Signal;HPM_P1;HPM_P2
2024/01/28 00:00:05;;;;;;;9.43;3.28;;;;;;;;;;2091439;28;20029;-43
2024/01/28 00:01:07;;;;;;;5.45;3.30;;;;;;;;;;2091669;28;20143;-45
2024/01/28 00:02:08;;;;;;;6.53;3.65;;;;;;;;;;2091011;28;20059;-44
2024/01/28 00:03:09;;;;;;;5.38;3.70;;;;;;;;;;2091587;28;20541;-45
2024/01/28 00:04:11;;;;;;;5.43;3.10;;;;;;;;;;2091581;28;20682;-45
2024/01/28 00:05:13;;;;;;;5.50;3.25;;;;;;;;;;2091199;28;20484;-44
2024/01/28 00:06:15;;;;;;;6.82;3.67;;;;;;;;;;2082657;28;20037;-45
2024/01/28 00:07:16;;;;;;;5.10;3.10;;;;;;;;;;2083073;28;20416;-45
2024/01/28 00:08:18;;;;;;;4.50;3.00;;;;;;;;;;2091139;28;20035;-44
2024/01/28 00:09:19;;;;;;;4.50;3.08;;;;;;;;;;2087453;28;20017;-44
2024/01/28 00:10:20;;;;;;;6.75;3.22;;;;;;;;;;2077266;28;20039;-45
2024/01/28 00:11:21;;;;;;;6.00;3.55;;;;;;;;;;2082544;28;20120;-45
2024/01/28 00:12:23;;;;;;;6.43;3.58;;;;;;;;;;2089595;28;20063;-43
2024/01/28 00:13:25;;;;;;;7.30;3.95;;;;;;;;;;2091394;28;20021;-43
2024/01/28 00:14:27;;;;;;;7.20;3.60;;;;;;;;;;2091225;28;20067;-44
2024/01/28 00:15:28;;;;;;;5.22;3.08;;;;;;;;;;2091671;28;20078;-45
2024/01/28 00:16:30;;;;;;;5.50;3.13;;;;;;;;;;2084752;28;20029;-45
2024/01/28 00:17:31;;;;;;;5.45;3.35;;;;;;;;;;2091192;28;20592;-44
2024/01/28 00:18:32;;;;;;;4.78;3.30;;;;;;;;;;2091423;28;20033;-46
2024/01/28 00:19:33;;;;;;;6.28;3.17;;;;;;;;;;2091225;28;20021;-45
2024/01/28 00:20:35;;;;;;;4.05;2.80;;;;;;;;;;2091353;28;20113;-45
2024/01/28 00:21:36;;;;;;;5.10;3.22;;;;;;;;;;2091224;28;20031;-45
2024/01/28 00:22:37;;;;;;;5.35;3.53;;;;;;;;;;2091405;28;20027;-45
2024/01/28 00:23:38;;;;;;;4.43;2.65;;;;;;;;;;2091672;28;20112;-45
2024/01/28 00:24:40;;;;;;;4.47;2.90;;;;;;;;;;2091430;28;20048;-45
2024/01/28 00:25:41;;;;;;;7.20;2.97;;;;;;;;;;2091508;28;20027;-44
2024/01/28 00:26:42;;;;;;;5.82;3.10;;;;;;;;;;2091314;28;20638;-45
2024/01/28 00:27:44;;;;;;;7.35;3.35;;;;;;;;;;2091442;28;20054;-44
2024/01/28 00:28:46;;;;;;;4.28;2.95;;;;;;;;;;2090895;28;20037;-45
2024/01/28 00:29:47;;;;;;;5.70;2.90;;;;;;;;;;2091608;28;20518;-44
2024/01/28 00:30:48;;;;;;;4.97;3.00;;;;;;;;;;2091478;28;20028;-45
2024/01/28 00:31:49;;;;;;;4.32;2.95;;;;;;;;;;2090844;28;20078;-46
2024/01/28 00:32:51;;;;;;;5.35;3.03;;;;;;;;;;2090615;28;20464;-45
2024/01/28 00:33:52;;;;;;;5.55;3.13;;;;;;;;;;2091541;28;20060;-45
2024/01/28 00:34:53;;;;;;;4.57;3.13;;;;;;;;;;2082821;28;20503;-44
2024/01/28 00:35:54;;;;;;;5.53;3.20;;;;;;;;;;2082629;28;20036;-45
2024/01/28 00:36:56;;;;;;;6.60;3.58;;;;;;;;;;2092673;28;20059;-44
2024/01/28 00:37:58;;;;;;;5.93;3.67;;;;;;;;;;2081648;28;20029;-45
2024/01/28 00:38:59;;;;;;;7.28;3.55;;;;;;;;;;2081169;28;20097;-45
2024/01/28 00:40:00;;;;;;;11.77;3.83;;;;;;;;;;2090390;28;20113;-45
2024/01/28 00:41:02;;;;;;;5.35;3.25;;;;;;;;;;2089994;28;20096;-45
2024/01/28 00:42:06;;;;;;;5.35;3.38;;;;;;;;;;2081087;28;20030;-45
2024/01/28 00:43:09;;;;;;;8.13;3.40;;;;;;;;;;2082177;28;20030;-45
2024/01/28 00:44:11;;;;;;;6.00;3.45;;;;;;;;;;2074247;28;20113;-45
2024/01/28 00:45:12;;;;;;;4.55;2.50;;;;;;;;;;2078898;28;20100;-45
2024/01/28 00:46:13;;;;;;;5.90;3.03;;;;;;;;;;2090320;28;20028;-44
2024/01/28 00:47:15;;;;;;;5.00;3.00;;;;;;;;;;2089773;28;20278;-45
2024/01/28 00:48:16;;;;;;;6.57;3.28;;;;;;;;;;2090270;28;20349;-44
2024/01/28 00:49:17;;;;;;;4.90;3.17;;;;;;;;;;2090074;28;20021;-45
2024/01/28 00:50:20;;;;;;;4.53;2.67;;;;;;;;;;2090062;28;20032;-46
2024/01/28 00:51:21;;;;;;;5.68;3.10;;;;;;;;;;2090031;28;20040;-44
2024/01/28 00:52:22;;;;;;;4.28;3.03;;;;;;;;;;2081116;28;20104;-50
2024/01/28 00:53:23;;;;;;;5.32;3.08;;;;;;;;;;2081193;28;20010;-50
2024/01/28 00:54:25;;;;;;;4.28;2.83;;;;;;;;;;2090098;28;20029;-51
2024/01/28 00:55:28;;;;;;;6.32;3.17;;;;;;;;;;2090097;28;20013;-44
2024/01/28 00:56:29;;;;;;;5.88;2.88;;;;;;;;;;2083473;28;20435;-52
2024/01/28 00:57:30;;;;;;;4.00;2.50;;;;;;;;;;2089851;28;20450;-48
2024/01/28 00:58:33;;;;;;;5.03;2.90;;;;;;;;;;2080072;28;20500;-49
2024/01/28 00:59:34;;;;;;;5.00;2.65;;;;;;;;;;2080672;28;20424;-51
2024/01/28 01:00:35;;;;;;;4.00;2.60;;;;;;;;;;2089329;28;20024;-49
2024/01/28 01:01:36;;;;;;;4.68;2.60;;;;;;;;;;2088784;28;20223;-48
2024/01/28 01:02:38;;;;;;;4.80;2.83;;;;;;;;;;2089644;28;20017;-50
2024/01/28 01:03:39;;;;;;;5.65;2.78;;;;;;;;;;2089863;28;20036;-50
2024/01/28 01:04:41;;;;;;;3.83;2.70;;;;;;;;;;2089932;28;20033;-52
2024/01/28 01:05:42;;;;;;;4.10;2.40;;;;;;;;;;2089879;28;20032;-55
2024/01/28 01:06:44;;;;;;;3.47;2.35;;;;;;;;;;2089790;28;20490;-50
2024/01/28 01:07:45;;;;;;;5.90;2.78;;;;;;;;;;2090059;28;20096;-50
2024/01/28 01:08:46;;;;;;;4.20;2.53;;;;;;;;;;2089873;28;20029;-46
2024/01/28 01:09:48;;;;;;;3.17;2.42;;;;;;;;;;2081192;28;20021;-50
2024/01/28 01:10:49;;;;;;;4.32;2.60;;;;;;;;;;2080715;28;20116;-53
2024/01/28 01:11:50;;;;;;;7.60;2.75;;;;;;;;;;2089737;28;20084;-51
2024/01/28 01:12:51;;;;;;;7.63;3.35;;;;;;;;;;2089852;28;20017;-50
2024/01/28 01:13:53;;;;;;;6.20;2.72;;;;;;;;;;2090115;28;20009;-54
2024/01/28 01:14:54;;;;;;;4.63;2.78;;;;;;;;;;2089473;28;20541;-50
2024/01/28 01:15:55;;;;;;;7.65;2.70;;;;;;;;;;2089832;28;20036;-50
2024/01/28 01:16:56;;;;;;;5.63;3.03;;;;;;;;;;2089812;28;20028;-48
2024/01/28 01:17:58;;;;;;;4.75;2.83;;;;;;;;;;2089887;28;20522;-50
2024/01/28 01:18:59;;;;;;;4.45;2.85;;;;;;;;;;2089392;28;20056;-49
2024/01/28 01:20:01;;;;;;;4.60;3.00;;;;;;;;;;2089194;28;20013;-49
2024/01/28 01:21:02;;;;;;;6.07;2.60;;;;;;;;;;2089020;28;20143;-50
2024/01/28 01:22:03;;;;;;;5.15;2.65;;;;;;;;;;2089781;28;20017;-50
2024/01/28 01:23:04;;;;;;;4.53;2.65;;;;;;;;;;2080686;28;20524;-50
2024/01/28 01:24:06;;;;;;;5.63;3.03;;;;;;;;;;2072433;28;20523;-49
2024/01/28 01:25:07;;;;;;;4.13;2.60;;;;;;;;;;2080898;28;20530;-48
2024/01/28 01:26:09;;;;;;;5.25;2.80;;;;;;;;;;2086699;28;20059;-50
2024/01/28 01:27:10;;;;;;;4.38;2.67;;;;;;;;;;2080602;28;20065;-49
2024/01/28 01:28:12;;;;;;;5.43;2.70;;;;;;;;;;2081102;28;20524;-51
2024/01/28 01:29:13;;;;;;;4.70;2.88;;;;;;;;;;2089406;28;20451;-50
2024/01/28 01:30:15;;;;;;;4.45;3.00;;;;;;;;;;2089874;28;20029;-50
2024/01/28 01:31:16;;;;;;;5.68;2.80;;;;;;;;;;2088806;28;20067;-48
2024/01/28 01:32:17;;;;;;;3.40;2.30;;;;;;;;;;2080733;28;20036;-50
2024/01/28 01:33:19;;;;;;;4.88;2.83;;;;;;;;;;2080932;28;20053;-49
2024/01/28 01:34:20;;;;;;;5.22;2.88;;;;;;;;;;2081322;28;20076;-45
2024/01/28 01:35:21;;;;;;;3.63;2.63;;;;;;;;;;2073496;28;20030;-44
2024/01/28 01:36:23;;;;;;;5.97;2.42;;;;;;;;;;2071229;28;20020;-43
2024/01/28 01:37:24;;;;;;;4.40;2.42;;;;;;;;;;2080962;28;20045;-44
2024/01/28 01:38:25;;;;;;;4.65;2.80;;;;;;;;;;2089531;28;20515;-45
2024/01/28 01:39:26;;;;;;;5.18;3.05;;;;;;;;;;2082433;28;20083;-46
2024/01/28 01:40:28;;;;;;;4.53;2.40;;;;;;;;;;2089804;28;20052;-45
2024/01/28 01:41:29;;;;;;;4.40;2.60;;;;;;;;;;2088675;28;20021;-44
2024/01/28 01:42:30;;;;;;;5.72;3.03;;;;;;;;;;2092545;28;20016;-45
2024/01/28 01:43:32;;;;;;;4.32;2.55;;;;;;;;;;2089662;28;20489;-45
2024/01/28 01:44:35;;;;;;;5.40;2.70;;;;;;;;;;2089353;28;20128;-45
2024/01/28 01:45:41;;;;;;;3.42;2.42;;;;;;;;;;2089628;28;20017;-45
2024/01/28 01:46:43;;;;;;;4.55;2.75;;;;;;;;;;2089655;28;20083;-45
2024/01/28 01:47:45;;;;;;;3.85;2.38;;;;;;;;;;2089312;28;20025;-45
2024/01/28 01:48:46;;;;;;;2.78;2.40;;;;;;;;;;2079196;28;20496;-45
2024/01/28 01:49:47;;;;;;;4.40;2.55;;;;;;;;;;2080566;28;20021;-44
2024/01/28 01:50:49;;;;;;;3.83;2.47;;;;;;;;;;2089171;28;20016;-45
2024/01/28 01:51:50;;;;;;;3.95;2.30;;;;;;;;;;2089746;28;20028;-44
2024/01/28 01:52:52;;;;;;;4.20;2.58;;;;;;;;;;2089025;28;20028;-44
2024/01/28 01:53:54;;;;;;;3.20;2.30;;;;;;;;;;2080629;28;20550;-45
2024/01/28 01:54:56;;;;;;;4.38;2.67;;;;;;;;;;2080900;28;20092;-45
2024/01/28 01:55:57;;;;;;;5.45;3.08;;;;;;;;;;2089724;28;20101;-45
2024/01/28 01:56:58;;;;;;;4.82;2.85;;;;;;;;;;2089585;28;20054;-45
2024/01/28 01:58:00;;;;;;;3.97;2.40;;;;;;;;;;2089192;28;20021;-46
2024/01/28 01:59:02;;;;;;;4.18;2.65;;;;;;;;;;2088886;28;20037;-47
2024/01/28 02:00:04;;;;;;;5.05;2.88;;;;;;;;;;2089968;28;20021;-44
2024/01/28 02:01:05;;;;;;;2.97;2.33;;;;;;;;;;2089334;28;20025;-45
2024/01/28 02:02:09;;;;;;;4.80;2.35;;;;;;;;;;2089417;28;20029;-44
2024/01/28 02:03:10;;;;;;;3.30;2.10;;;;;;;;;;2089672;28;20045;-45
2024/01/28 02:04:11;;;;;;;4.70;2.95;;;;;;;;;;2089354;28;20029;-45
2024/01/28 02:05:13;;;;;;;4.95;2.65;;;;;;;;;;2089204;28;20095;-45
2024/01/28 02:06:16;;;;;;;4.13;2.60;;;;;;;;;;2088883;28;20064;-45
2024/01/28 02:07:18;;;;;;;3.78;2.42;;;;;;;;;;2088224;28;20107;-45
2024/01/28 02:08:19;;;;;;;5.68;2.70;;;;;;;;;;2089309;28;20025;-45
2024/01/28 02:09:20;;;;;;;6.93;2.58;;;;;;;;;;2088688;28;20106;-45
2024/01/28 02:10:22;;;;;;;4.18;2.50;;;;;;;;;;2089480;28;20032;-44
2024/01/28 02:11:23;;;;;;;3.40;2.38;;;;;;;;;;2089586;28;20016;-45
2024/01/28 02:12:25;;;;;;;4.13;2.50;;;;;;;;;;2088866;28;20021;-44
2024/01/28 02:13:27;;;;;;;4.60;2.75;;;;;;;;;;2089435;28;20032;-46
2024/01/28 02:14:29;;;;;;;5.63;2.80;;;;;;;;;;2088802;28;20060;-44
2024/01/28 02:15:36;;;;;;;5.32;2.42;;;;;;;;;;2080774;28;20112;-45
2024/01/28 02:16:37;;;;;;;4.85;2.90;;;;;;;;;;2081549;28;20349;-45
2024/01/28 02:17:39;;;;;;;4.28;2.78;;;;;;;;;;2089409;28;20115;-44
2024/01/28 02:18:41;;;;;;;5.20;2.70;;;;;;;;;;2089787;28;20515;-44
2024/01/28 02:19:42;;;;;;;4.88;3.33;;;;;;;;;;2080564;28;20564;-47
2024/01/28 02:20:43;;;;;;;4.63;2.90;;;;;;;;;;2080616;28;20057;-44
2024/01/28 02:21:44;;;;;;;4.07;2.65;;;;;;;;;;2089273;28;20036;-45
2024/01/28 02:22:46;;;;;;;4.88;3.08;;;;;;;;;;2080396;28;20033;-45
2024/01/28 02:23:47;;;;;;;4.80;2.92;;;;;;;;;;2080672;28;20541;-45
2024/01/28 02:24:48;;;;;;;5.35;3.10;;;;;;;;;;2089490;28;20100;-44
2024/01/28 02:25:50;;;;;;;4.32;2.75;;;;;;;;;;2089091;28;20107;-44
2024/01/28 02:26:51;;;;;;;4.28;2.90;;;;;;;;;;2080799;28;20024;-44
2024/01/28 02:27:52;;;;;;;8.35;2.88;;;;;;;;;;2080595;28;20060;-45
2024/01/28 02:28:53;;;;;;;5.47;3.03;;;;;;;;;;2089283;28;20029;-46
2024/01/28 02:29:55;;;;;;;4.55;2.85;;;;;;;;;;2080713;28;20500;-44
2024/01/28 02:30:56;;;;;;;4.65;2.58;;;;;;;;;;2080586;28;20030;-45
2024/01/28 02:31:57;;;;;;;6.95;3.30;;;;;;;;;;2080469;28;20420;-46
2024/01/28 02:32:58;;;;;;;3.80;2.67;;;;;;;;;;2080661;28;20389;-46
2024/01/28 02:34:00;;;;;;;5.05;2.72;;;;;;;;;;2089257;28;20012;-46
2024/01/28 02:35:01;;;;;;;4.45;2.70;;;;;;;;;;2089649;28;20442;-44
2024/01/28 02:36:03;;;;;;;4.30;2.78;;;;;;;;;;2080586;28;20064;-44
2024/01/28 02:37:04;;;;;;;5.90;2.65;;;;;;;;;;2080676;28;20361;-45
2024/01/28 02:38:06;;;;;;;4.15;2.67;;;;;;;;;;2089538;28;20071;-48
2024/01/28 02:39:07;;;;;;;5.13;3.00;;;;;;;;;;2089175;28;20470;-48
2024/01/28 02:40:10;;;;;;;5.47;2.92;;;;;;;;;;2089605;28;20021;-48
2024/01/28 02:41:11;;;;;;;3.88;2.75;;;;;;;;;;2088438;28;20021;-48
2024/01/28 02:42:12;;;;;;;3.70;2.63;;;;;;;;;;2091901;28;20052;-48
2024/01/28 02:43:13;;;;;;;3.60;2.50;;;;;;;;;;2088585;28;20401;-46
2024/01/28 02:44:15;;;;;;;4.07;2.60;;;;;;;;;;2080644;28;20032;-45
2024/01/28 02:45:18;;;;;;;4.38;2.67;;;;;;;;;;2080498;28;20029;-45
2024/01/28 02:46:20;;;;;;;4.32;2.38;;;;;;;;;;2080855;28;20026;-45
2024/01/28 02:47:22;;;;;;;6.20;3.17;;;;;;;;;;2080407;28;20031;-45
2024/01/28 02:48:23;;;;;;;3.85;2.40;;;;;;;;;;2080858;28;20516;-44
2024/01/28 02:49:25;;;;;;;3.50;2.28;;;;;;;;;;2089317;28;20033;-46
2024/01/28 02:50:26;;;;;;;4.55;2.42;;;;;;;;;;2087366;28;20405;-44
2024/01/28 02:51:27;;;;;;;4.00;2.70;;;;;;;;;;2088978;28;20067;-45
2024/01/28 02:52:28;;;;;;;4.25;2.50;;;;;;;;;;2088978;28;20104;-44
2024/01/28 02:53:30;;;;;;;4.55;2.83;;;;;;;;;;2088622;28;20021;-45
2024/01/28 02:54:31;;;;;;;5.47;2.75;;;;;;;;;;2089242;28;20017;-43
2024/01/28 02:55:34;;;;;;;4.80;2.58;;;;;;;;;;2089322;28;20025;-44
2024/01/28 02:56:35;;;;;;;4.38;2.65;;;;;;;;;;2089251;28;20024;-45
2024/01/28 02:57:37;;;;;;;4.13;2.75;;;;;;;;;;2089404;28;20650;-46
2024/01/28 02:58:38;;;;;;;4.55;2.55;;;;;;;;;;2089041;28;20053;-44
2024/01/28 02:59:39;;;;;;;4.38;3.15;;;;;;;;;;2089187;28;20041;-44
2024/01/28 03:00:40;;;;;;;5.30;2.42;;;;;;;;;;2089168;28;20028;-45
2024/01/28 03:01:46;;;;;;;5.35;2.65;;;;;;;;;;2089167;28;20027;-44
2024/01/28 03:02:47;;;;;;;4.40;2.65;;;;;;;;;;2089089;28;20028;-44
2024/01/28 03:03:48;;;;;;;3.95;2.65;;;;;;;;;;2089002;28;20037;-50
2024/01/28 03:04:50;;;;;;;3.78;2.63;;;;;;;;;;2088977;28;20024;-44
2024/01/28 03:05:51;;;;;;;4.97;3.03;;;;;;;;;;2089248;28;20056;-43
2024/01/28 03:06:52;;;;;;;4.47;2.97;;;;;;;;;;2089224;28;20013;-44
2024/01/28 03:07:54;;;;;;;3.97;2.75;;;;;;;;;;2080350;28;20029;-44
2024/01/28 03:08:55;;;;;;;4.70;2.95;;;;;;;;;;2080142;28;20036;-45
2024/01/28 03:09:56;;;;;;;3.95;2.65;;;;;;;;;;2089004;28;20108;-45
2024/01/28 03:10:58;;;;;;;3.88;2.55;;;;;;;;;;2089195;28;20044;-44
2024/01/28 03:11:59;;;;;;;3.25;2.40;;;;;;;;;;2089121;28;20016;-44
2024/01/28 03:13:01;;;;;;;5.10;2.45;;;;;;;;;;2088771;28;20024;-44
2024/01/28 03:14:02;;;;;;;3.78;2.50;;;;;;;;;;2089164;28;20031;-45
2024/01/28 03:15:04;;;;;;;3.88;2.40;;;;;;;;;;2089175;28;20029;-44
2024/01/28 03:16:05;;;;;;;3.63;2.45;;;;;;;;;;2089248;28;20939;-44
2024/01/28 03:17:07;;;;;;;4.40;2.65;;;;;;;;;;2089256;28;20187;-43
2024/01/28 03:18:08;;;;;;;3.95;2.45;;;;;;;;;;2084410;28;20028;-44
2024/01/28 03:19:09;;;;;;;4.88;2.60;;;;;;;;;;2085432;28;20358;-44
2024/01/28 03:20:11;;;;;;;3.88;2.70;;;;;;;;;;2089738;28;20028;-45
2024/01/28 03:21:12;;;;;;;4.10;2.70;;;;;;;;;;2089055;28;20021;-45
2024/01/28 03:22:14;;;;;;;3.80;2.05;;;;;;;;;;2089118;28;20025;-45
2024/01/28 03:23:15;;;;;;;4.22;2.50;;;;;;;;;;2082222;28;20036;-44
2024/01/28 03:24:16;;;;;;;3.63;2.22;;;;;;;;;;2083287;28;20408;-46
2024/01/28 03:25:18;;;;;;;4.00;2.20;;;;;;;;;;2088988;28;20034;-45
2024/01/28 03:26:19;;;;;;;4.97;2.53;;;;;;;;;;2088441;28;20183;-44
2024/01/28 03:27:20;;;;;;;5.53;2.83;;;;;;;;;;2089117;28;20147;-49
2024/01/28 03:28:21;;;;;;;3.88;2.10;;;;;;;;;;2089241;28;20100;-50
2024/01/28 03:29:23;;;;;;;4.68;2.47;;;;;;;;;;2088531;28;20043;-43
2024/01/28 03:30:24;;;;;;;4.25;2.65;;;;;;;;;;2088970;28;20040;-44
2024/01/28 03:31:25;;;;;;;3.83;2.55;;;;;;;;;;2088558;28;20045;-45
2024/01/28 03:32:27;;;;;;;6.40;2.97;;;;;;;;;;2088420;28;20831;-46
2024/01/28 03:33:28;;;;;;;5.35;2.40;;;;;;;;;;2088942;28;20561;-45
2024/01/28 03:34:29;;;;;;;5.03;2.50;;;;;;;;;;2089239;28;20029;-45
2024/01/28 03:35:30;;;;;;;4.38;2.70;;;;;;;;;;2089029;28;20023;-43
2024/01/28 03:36:32;;;;;;;4.38;2.42;;;;;;;;;;2088706;28;20483;-44
2024/01/28 03:37:33;;;;;;;3.13;2.13;;;;;;;;;;2088108;28;20483;-45
2024/01/28 03:38:34;;;;;;;7.97;2.67;;;;;;;;;;2088629;28;20025;-45
2024/01/28 03:39:35;;;;;;;4.78;2.65;;;;;;;;;;2088872;28;20009;-45
2024/01/28 03:40:37;;;;;;;4.35;2.75;;;;;;;;;;2088864;28;20029;-43
2024/01/28 03:41:38;;;;;;;4.15;2.60;;;;;;;;;;2089070;28;20024;-44
2024/01/28 03:42:40;;;;;;;4.38;2.78;;;;;;;;;;2088569;28;20055;-44
2024/01/28 03:43:46;;;;;;;4.10;2.47;;;;;;;;;;2080047;28;20072;-44
2024/01/28 03:44:47;;;;;;;4.35;2.70;;;;;;;;;;2081325;28;20022;-45
2024/01/28 03:45:48;;;;;;;3.45;2.45;;;;;;;;;;2089050;28;20025;-44
2024/01/28 03:46:50;;;;;;;4.25;2.40;;;;;;;;;;2089019;28;20025;-45
2024/01/28 03:47:51;;;;;;;3.60;2.38;;;;;;;;;;2089329;28;20028;-44
2024/01/28 03:48:53;;;;;;;4.53;2.60;;;;;;;;;;2079661;28;20022;-44
2024/01/28 03:49:54;;;;;;;3.85;2.50;;;;;;;;;;2080461;28;20014;-43
2024/01/28 03:50:55;;;;;;;4.63;2.40;;;;;;;;;;2089144;28;20056;-43
2024/01/28 03:51:57;;;;;;;3.88;2.10;;;;;;;;;;2089010;28;20506;-44
2024/01/28 03:52:58;;;;;;;3.17;2.20;;;;;;;;;;2089125;28;20024;-45
2024/01/28 03:53:59;;;;;;;3.17;1.88;;;;;;;;;;2089000;28;20496;-49
2024/01/28 03:55:01;;;;;;;5.55;2.33;;;;;;;;;;2088945;28;20499;-43
2024/01/28 03:56:02;;;;;;;2.55;1.80;;;;;;;;;;2088899;28;20017;-43
2024/01/28 03:57:03;;;;;;;3.78;2.20;;;;;;;;;;2088675;28;20040;-50
2024/01/28 03:58:05;;;;;;;3.20;2.20;;;;;;;;;;2088159;28;20088;-51
2024/01/28 03:59:07;;;;;;;2.97;2.00;;;;;;;;;;2088966;28;20055;-51
2024/01/28 04:00:11;;;;;;;4.50;2.42;;;;;;;;;;2088937;28;20025;-51
2024/01/28 04:01:12;;;;;;;4.10;2.45;;;;;;;;;;2088887;28;20359;-50
2024/01/28 04:02:17;;;;;;;3.28;2.03;;;;;;;;;;2089094;28;20484;-51
2024/01/28 04:03:19;;;;;;;2.88;2.05;;;;;;;;;;2088699;28;20032;-45
2024/01/28 04:04:20;;;;;;;3.60;2.25;;;;;;;;;;2096515;28;20025;-48
2024/01/28 04:05:21;;;;;;;3.72;1.90;;;;;;;;;;2096603;28;20025;-43
2024/01/28 04:06:23;;;;;;;4.95;2.03;;;;;;;;;;2088879;28;20017;-44
2024/01/28 04:07:24;;;;;;;3.92;2.45;;;;;;;;;;2089026;28;20017;-43
2024/01/28 04:08:25;;;;;;;3.00;2.25;;;;;;;;;;2088781;28;20009;-45
2024/01/28 04:09:27;;;;;;;4.15;1.98;;;;;;;;;;2084237;28;20040;-43
2024/01/28 04:10:28;;;;;;;3.30;2.10;;;;;;;;;;2088243;28;20383;-44
2024/01/28 04:11:29;;;;;;;4.80;2.35;;;;;;;;;;2091143;28;20159;-44
2024/01/28 04:12:30;;;;;;;4.22;2.67;;;;;;;;;;2089710;28;20021;-44
2024/01/28 04:13:32;;;;;;;3.95;2.28;;;;;;;;;;2073012;28;20045;-44
2024/01/28 04:14:33;;;;;;;5.00;2.40;;;;;;;;;;2073629;28;20093;-44
2024/01/28 04:15:35;;;;;;;3.35;2.15;;;;;;;;;;2090536;28;20415;-44
2024/01/28 04:16:36;;;;;;;3.28;2.42;;;;;;;;;;2090477;28;20013;-43
2024/01/28 04:17:37;;;;;;;3.78;2.58;;;;;;;;;;2090295;28;20466;-44
2024/01/28 04:18:39;;;;;;;3.38;2.40;;;;;;;;;;2090374;28;20024;-44
2024/01/28 04:19:40;;;;;;;3.38;2.25;;;;;;;;;;2090446;28;20027;-45
2024/01/28 04:20:41;;;;;;;4.57;2.30;;;;;;;;;;2090370;28;20028;-48
2024/01/28 04:21:42;;;;;;;4.30;2.53;;;;;;;;;;2090480;28;20032;-48
2024/01/28 04:22:44;;;;;;;3.13;2.20;;;;;;;;;;2090583;28;20364;-47
2024/01/28 04:23:46;;;;;;;3.22;2.08;;;;;;;;;;2090267;28;20504;-48
2024/01/28 04:24:47;;;;;;;4.30;2.35;;;;;;;;;;2083310;28;20028;-47
2024/01/28 04:25:49;;;;;;;3.60;2.70;;;;;;;;;;2090507;28;20021;-48
2024/01/28 04:26:52;;;;;;;4.20;2.10;;;;;;;;;;2090375;28;20100;-48
2024/01/28 04:27:53;;;;;;;3.85;2.25;;;;;;;;;;2090483;28;20024;-48
2024/01/28 04:28:55;;;;;;;3.97;2.50;;;;;;;;;;2086154;28;20033;-49
2024/01/28 04:29:56;;;;;;;4.32;2.60;;;;;;;;;;2089824;28;20033;-50
2024/01/28 04:31:01;;;;;;;4.05;2.70;;;;;;;;;;2089891;28;20062;-49
2024/01/28 04:32:02;;;;;;;3.60;2.40;;;;;;;;;;2090264;28;20075;-49
2024/01/28 04:33:04;;;;;;;3.30;2.55;;;;;;;;;;2090246;28;20507;-49
2024/01/28 04:34:05;;;;;;;3.70;2.40;;;;;;;;;;2090126;28;20013;-49
2024/01/28 04:35:06;;;;;;;3.40;2.25;;;;;;;;;;2089726;28;20036;-48
2024/01/28 04:36:08;;;;;;;4.50;2.60;;;;;;;;;;2097594;28;20024;-47
2024/01/28 04:37:10;;;;;;;5.03;2.83;;;;;;;;;;2097178;28;20021;-48
2024/01/28 04:38:11;;;;;;;4.18;2.78;;;;;;;;;;2090052;28;20017;-48
2024/01/28 04:39:15;;;;;;;5.00;2.42;;;;;;;;;;2088893;28;20068;-46
2024/01/28 04:40:16;;;;;;;5.45;2.58;;;;;;;;;;2089900;28;20059;-47
2024/01/28 04:41:18;;;;;;;3.80;2.53;;;;;;;;;;2089604;28;20044;-47
2024/01/28 04:42:22;;;;;;;4.30;2.50;;;;;;;;;;2086683;28;20037;-47
2024/01/28 04:43:23;;;;;;;3.55;2.72;;;;;;;;;;2089723;28;20040;-49
2024/01/28 04:44:24;;;;;;;4.47;2.75;;;;;;;;;;2080823;28;20029;-48
2024/01/28 04:45:25;;;;;;;4.13;2.22;;;;;;;;;;2080681;28;20018;-49
2024/01/28 04:46:27;;;;;;;4.70;2.97;;;;;;;;;;2089901;28;20036;-49
2024/01/28 04:47:28;;;;;;;5.50;2.70;;;;;;;;;;2089722;28;20033;-50
2024/01/28 04:48:29;;;;;;;4.35;2.78;;;;;;;;;;2089543;28;20024;-49
2024/01/28 04:49:33;;;;;;;4.28;2.80;;;;;;;;;;2089891;28;20638;-46
2024/01/28 04:50:35;;;;;;;5.72;2.90;;;;;;;;;;2089728;28;20074;-50
2024/01/28 04:51:36;;;;;;;2.85;2.25;;;;;;;;;;2089926;28;20029;-48
2024/01/28 04:52:38;;;;;;;5.25;2.72;;;;;;;;;;2089715;28;20020;-48
2024/01/28 04:53:39;;;;;;;4.72;2.60;;;;;;;;;;2089947;28;20103;-48
2024/01/28 04:54:40;;;;;;;4.25;2.88;;;;;;;;;;2080813;28;20843;-47
2024/01/28 04:55:42;;;;;;;3.58;2.40;;;;;;;;;;2080962;28;20068;-48
2024/01/28 04:56:43;;;;;;;3.75;2.78;;;;;;;;;;2089346;28;20114;-48
2024/01/28 04:57:44;;;;;;;3.80;2.60;;;;;;;;;;2089384;28;20025;-47
2024/01/28 04:58:45;;;;;;;4.18;2.60;;;;;;;;;;2089745;28;20328;-48
2024/01/28 04:59:47;;;;;;;5.20;2.63;;;;;;;;;;2089601;28;20029;-48
2024/01/28 05:00:48;;;;;;;4.53;2.70;;;;;;;;;;2090046;28;20484;-48
2024/01/28 05:01:50;;;;;;;4.13;2.85;;;;;;;;;;2077481;28;20098;-47
2024/01/28 05:02:55;;;;;;;5.88;2.70;;;;;;;;;;2077335;28;20013;-48
2024/01/28 05:03:56;;;;;;;4.00;3.00;;;;;;;;;;2088067;28;20103;-47
2024/01/28 05:04:57;;;;;;;3.22;2.55;;;;;;;;;;2089310;28;20100;-47
2024/01/28 05:05:59;;;;;;;4.22;3.10;;;;;;;;;;2089944;28;20005;-48
2024/01/28 05:07:00;;;;;;;4.47;2.85;;;;;;;;;;2075919;28;20346;-47
2024/01/28 05:08:01;;;;;;;3.33;2.50;;;;;;;;;;2078192;28;20424;-48
2024/01/28 05:09:03;;;;;;;5.63;2.88;;;;;;;;;;2089851;28;20456;-48
2024/01/28 05:10:05;;;;;;;4.47;2.50;;;;;;;;;;2080685;28;20029;-47
2024/01/28 05:11:06;;;;;;;4.03;2.80;;;;;;;;;;2080869;28;20116;-49
2024/01/28 05:12:08;;;;;;;3.17;2.38;;;;;;;;;;2089854;28;20017;-44
2024/01/28 05:13:09;;;;;;;3.92;2.50;;;;;;;;;;2089413;28;20112;-45
2024/01/28 05:14:11;;;;;;;4.00;2.55;;;;;;;;;;2089298;28;20166;-44
2024/01/28 05:15:16;;;;;;;4.75;2.45;;;;;;;;;;2089619;28;20384;-43
2024/01/28 05:16:17;;;;;;;4.25;2.50;;;;;;;;;;2089677;28;20036;-44
2024/01/28 05:17:19;;;;;;;5.13;2.55;;;;;;;;;;2089414;28;20086;-45
2024/01/28 05:18:20;;;;;;;3.08;2.08;;;;;;;;;;2081009;28;20021;-44
2024/01/28 05:19:21;;;;;;;4.13;2.35;;;;;;;;;;2081011;28;20022;-44
2024/01/28 05:20:23;;;;;;;4.97;2.40;;;;;;;;;;2089535;28;20075;-44
2024/01/28 05:21:24;;;;;;;4.22;2.22;;;;;;;;;;2089714;28;20032;-46
2024/01/28 05:22:25;;;;;;;3.60;2.63;;;;;;;;;;2089392;28;20459;-44
2024/01/28 05:23:27;;;;;;;4.72;2.10;;;;;;;;;;2089473;28;20036;-45
2024/01/28 05:24:28;;;;;;;4.72;2.45;;;;;;;;;;2089860;28;20017;-44
2024/01/28 05:25:31;;;;;;;3.72;2.38;;;;;;;;;;2089503;28;20049;-44
2024/01/28 05:26:33;;;;;;;4.03;2.50;;;;;;;;;;2082741;28;20033;-43
2024/01/28 05:27:34;;;;;;;4.55;2.58;;;;;;;;;;2090234;28;20082;-45
2024/01/28 05:28:35;;;;;;;5.43;2.40;;;;;;;;;;2090101;28;20029;-45
2024/01/28 05:29:37;;;;;;;4.88;2.50;;;;;;;;;;2089780;28;20103;-44
2024/01/28 05:30:38;;;;;;;4.47;2.20;;;;;;;;;;2089720;28;20036;-45
2024/01/28 05:31:40;;;;;;;4.00;2.45;;;;;;;;;;2090300;28;20021;-46
2024/01/28 05:32:41;;;;;;;3.63;2.00;;;;;;;;;;2089867;28;20027;-44
2024/01/28 05:33:44;;;;;;;5.70;2.70;;;;;;;;;;2089422;28;20570;-43
2024/01/28 05:34:46;;;;;;;3.88;2.20;;;;;;;;;;2085073;28;20120;-45
2024/01/28 05:35:47;;;;;;;3.58;2.33;;;;;;;;;;2089509;28;20009;-44
2024/01/28 05:36:49;;;;;;;4.57;2.45;;;;;;;;;;2080669;28;20500;-44
2024/01/28 05:37:50;;;;;;;3.78;2.30;;;;;;;;;;2080818;28;20026;-45
2024/01/28 05:38:54;;;;;;;5.47;1.92;;;;;;;;;;2085504;28;20364;-43
2024/01/28 05:39:55;;;;;;;3.90;2.20;;;;;;;;;;2090588;28;20017;-50
2024/01/28 05:40:57;;;;;;;3.63;2.20;;;;;;;;;;2089849;28;20084;-48
2024/01/28 05:41:58;;;;;;;3.28;2.17;;;;;;;;;;2089659;28;20576;-49
2024/01/28 05:43:00;;;;;;;3.65;2.10;;;;;;;;;;2086053;28;20120;-49
2024/01/28 05:44:02;;;;;;;3.35;2.15;;;;;;;;;;2080989;28;20546;-48
2024/01/28 05:45:03;;;;;;;3.05;2.22;;;;;;;;;;2089438;28;20021;-50
2024/01/28 05:46:05;;;;;;;2.92;2.17;;;;;;;;;;2090016;28;20075;-52
2024/01/28 05:47:06;;;;;;;4.88;2.50;;;;;;;;;;2089400;28;20033;-46
2024/01/28 05:48:08;;;;;;;5.13;2.40;;;;;;;;;;2089852;28;20536;-53
2024/01/28 05:49:11;;;;;;;2.78;2.08;;;;;;;;;;2089615;28;20056;-52
2024/01/28 05:50:12;;;;;;;4.60;2.40;;;;;;;;;;2088424;28;20017;-55
2024/01/28 05:51:14;;;;;;;4.35;2.17;;;;;;;;;;2090077;28;20032;-54
2024/01/28 05:52:15;;;;;;;5.05;2.30;;;;;;;;;;2089474;28;20048;-50
2024/01/28 05:53:16;;;;;;;3.47;2.30;;;;;;;;;;2089719;28;20690;-50
2024/01/28 05:54:18;;;;;;;4.47;2.28;;;;;;;;;;2089570;28;20059;-48
2024/01/28 05:55:19;;;;;;;3.78;2.15;;;;;;;;;;2089812;28;20037;-49
2024/01/28 05:56:20;;;;;;;4.55;2.17;;;;;;;;;;2080660;28;20022;-50
2024/01/28 05:57:21;;;;;;;5.78;2.60;;;;;;;;;;2080724;28;20120;-48
2024/01/28 05:58:23;;;;;;;2.78;1.98;;;;;;;;;;2089881;28;20013;-48
2024/01/28 05:59:25;;;;;;;4.15;2.10;;;;;;;;;;2089302;28;20112;-50
2024/01/28 06:00:26;;;;;;;2.58;2.13;;;;;;;;;;2089462;28;20500;-48
2024/01/28 06:01:27;;;;;;;3.40;2.47;;;;;;;;;;2080636;28;20036;-45
2024/01/28 06:02:28;;;;;;;3.40;2.05;;;;;;;;;;2080653;28;20025;-50
2024/01/28 06:03:30;;;;;;;4.72;2.28;;;;;;;;;;2089384;28;20428;-51
2024/01/28 06:04:32;;;;;;;3.55;2.05;;;;;;;;;;2089374;28;20535;-47
2024/01/28 06:05:33;;;;;;;2.60;2.00;;;;;;;;;;2088735;28;20524;-44
2024/01/28 06:06:35;;;;;;;4.07;2.55;;;;;;;;;;2088596;28;20494;-44
2024/01/28 06:07:36;;;;;;;2.88;1.98;;;;;;;;;;2089563;28;20039;-47
2024/01/28 06:08:37;;;;;;;3.58;2.13;;;;;;;;;;2089263;28;20036;-51